createdAt,value
2016-12-08T12:55:31.566Z,279
2016-12-08T12:55:43.504Z,274
2016-12-08T12:57:55.473Z,274
2016-12-08T12:58:13.347Z,272
2016-12-08T13:00:45.301Z,245
2016-12-08T13:03:17.160Z,208
2016-12-08T13:05:48.997Z,190
2016-12-08T13:08:20.986Z,183
2016-12-08T13:10:52.822Z,176
2016-12-08T13:13:24.661Z,195
2016-12-08T13:15:56.521Z,202
2016-12-08T13:18:28.373Z,199
2016-12-08T13:21:00.231Z,204
2016-12-08T13:23:32.072Z,195
2016-12-08T13:28:50.792Z,164
2016-12-08T13:31:22.671Z,154
2016-12-08T13:33:54.510Z,156
2016-12-08T13:36:26.350Z,139
2016-12-08T13:38:58.208Z,130
2016-12-08T13:41:30.055Z,128
2016-12-08T13:44:01.886Z,132
2016-12-08T13:46:33.749Z,100
2016-12-08T13:49:05.599Z,88
2016-12-08T13:51:37.433Z,82
2016-12-08T13:54:09.284Z,77
2016-12-08T13:56:41.132Z,72
2016-12-08T13:59:12.968Z,68
2016-12-08T14:01:44.804Z,77
2016-12-08T14:04:16.633Z,76
2016-12-08T14:06:48.461Z,73
2016-12-08T14:09:20.289Z,62
2016-12-08T14:11:52.476Z,53
2016-12-08T14:14:24.331Z,64
2016-12-08T14:16:56.179Z,55
2016-12-08T14:19:28.023Z,40
2016-12-08T14:21:59.853Z,39
2016-12-08T14:24:31.706Z,102
2016-12-08T14:27:03.565Z,103
2016-12-08T14:29:35.393Z,92
2016-12-08T14:32:07.248Z,100
2016-12-08T14:34:39.071Z,95
2016-12-08T14:37:10.896Z,80
2016-12-08T14:39:42.749Z,76
2016-12-08T14:42:14.585Z,88
2016-12-08T14:44:46.421Z,81
2016-12-08T14:47:18.322Z,81
2016-12-08T14:49:50.180Z,82
2016-12-08T14:52:22.054Z,66
2016-12-08T14:54:53.895Z,66
2016-12-08T14:57:25.730Z,15
2016-12-08T14:59:57.580Z,15
2016-12-08T15:02:29.417Z,9
2016-12-08T15:05:01.251Z,8
2016-12-08T15:07:33.084Z,7
2016-12-08T15:10:04.957Z,3
2016-12-08T15:12:36.795Z,2
2016-12-08T15:15:08.648Z,3
2016-12-08T15:17:40.499Z,3
2016-12-08T15:20:12.331Z,1
2016-12-08T15:22:44.174Z,0
2016-12-08T15:25:16.029Z,2
2016-12-08T15:27:47.867Z,1
2016-12-08T15:30:19.704Z,1
2016-12-08T15:32:51.556Z,0
2016-12-08T15:35:23.407Z,0
2016-12-08T15:37:55.271Z,0
2016-12-08T15:40:27.107Z,0
2016-12-08T15:42:58.962Z,0
2016-12-08T15:45:30.803Z,0
2016-12-08T15:48:02.647Z,0
2016-12-08T15:50:34.492Z,0
2016-12-08T15:53:06.360Z,0
2016-12-08T15:55:38.251Z,0
2016-12-08T15:58:10.104Z,0
2016-12-08T16:00:41.941Z,0
2016-12-08T16:03:13.799Z,0
2016-12-08T16:05:45.641Z,0
2016-12-08T16:08:17.486Z,0
2016-12-08T16:10:49.328Z,0
2016-12-08T16:13:21.172Z,0
2016-12-08T16:15:53.028Z,0
2016-12-08T16:18:24.874Z,0
2016-12-08T16:20:56.718Z,0
2016-12-08T16:23:28.570Z,0
2016-12-08T16:26:00.418Z,0
2016-12-08T16:28:32.298Z,0
2016-12-08T16:31:04.135Z,0
2016-12-08T16:33:35.995Z,0
2016-12-08T16:36:07.834Z,25
2016-12-08T16:38:39.675Z,48
2016-12-08T16:41:11.528Z,50
2016-12-08T16:43:43.374Z,45
2016-12-08T16:46:15.279Z,54
2016-12-08T16:48:47.128Z,47
2016-12-08T16:51:18.976Z,52
2016-12-08T16:53:50.822Z,54
2016-12-08T16:56:22.680Z,47
2016-12-08T16:58:54.555Z,47
2016-12-08T17:01:26.424Z,48
2016-12-08T17:03:58.289Z,44
2016-12-08T17:06:30.128Z,51
2016-12-08T17:09:01.959Z,49
2016-12-08T17:11:33.821Z,0
2016-12-08T17:14:05.657Z,0
2016-12-08T17:16:37.511Z,0
2016-12-08T17:19:09.372Z,0
2016-12-08T17:21:41.203Z,0
2016-12-08T17:24:13.070Z,0
2016-12-08T17:26:44.917Z,0
2016-12-08T17:29:16.746Z,0
2016-12-08T17:31:48.591Z,0
2016-12-08T17:34:20.444Z,0
2016-12-08T17:36:52.298Z,0
2016-12-08T17:39:24.143Z,0
2016-12-08T17:41:55.982Z,0
2016-12-08T17:44:27.825Z,0
2016-12-08T17:46:59.677Z,0
2016-12-08T17:49:31.522Z,0
2016-12-08T17:52:03.359Z,0
2016-12-08T17:54:35.217Z,0
2016-12-08T17:57:07.054Z,0
2016-12-08T17:59:38.901Z,0
2016-12-08T18:02:10.757Z,0
2016-12-08T18:04:42.605Z,0
2016-12-08T18:07:14.450Z,0
2016-12-08T18:09:46.296Z,0
2016-12-08T18:12:18.146Z,0
2016-12-08T18:14:49.975Z,0
2016-12-08T18:17:21.822Z,0
2016-12-08T18:19:53.691Z,0
2016-12-08T18:22:25.537Z,0
2016-12-08T18:24:57.387Z,0
2016-12-08T18:27:29.235Z,0
2016-12-08T18:30:01.095Z,0
2016-12-08T18:32:32.946Z,0
2016-12-08T18:35:04.795Z,0
2016-12-08T18:37:36.634Z,0
2016-12-08T18:40:08.478Z,0
2016-12-08T18:42:40.318Z,0
2016-12-08T18:45:12.164Z,0
2016-12-08T18:47:44.021Z,0
2016-12-08T18:50:15.871Z,0
2016-12-08T18:52:47.723Z,0
2016-12-08T18:55:19.581Z,0
2016-12-08T18:57:51.414Z,0
2016-12-08T19:00:23.251Z,0
2016-12-08T19:02:55.117Z,0
2016-12-08T19:05:26.965Z,0
2016-12-08T19:07:58.810Z,0
2016-12-08T19:10:30.663Z,0
2016-12-08T19:13:02.864Z,0
2016-12-08T19:15:34.703Z,0
2016-12-08T19:18:06.563Z,0
2016-12-08T19:20:38.417Z,0
2016-12-08T19:23:10.269Z,0
2016-12-08T19:25:42.121Z,0
2016-12-08T19:28:13.964Z,0
2016-12-08T19:30:45.813Z,0
2016-12-08T19:33:17.661Z,0
2016-12-08T19:35:49.505Z,0
2016-12-08T19:38:21.362Z,0
2016-12-08T19:40:53.211Z,0
2016-12-08T19:43:25.057Z,0
2016-12-08T19:45:56.897Z,0
2016-12-08T19:48:28.743Z,0
2016-12-08T19:51:00.583Z,0
2016-12-08T19:53:32.419Z,0
2016-12-08T19:56:04.285Z,0
2016-12-08T19:58:36.478Z,0
2016-12-08T20:01:08.311Z,0
2016-12-08T20:03:40.164Z,0
2016-12-08T20:06:11.993Z,0
2016-12-08T20:08:43.850Z,0
2016-12-08T20:11:15.718Z,0
2016-12-08T20:13:47.547Z,0
2016-12-08T20:16:19.407Z,0
2016-12-08T20:18:51.248Z,0
2016-12-08T20:21:23.086Z,0
2016-12-08T20:23:54.949Z,0
2016-12-08T20:26:26.819Z,0
2016-12-08T20:28:59.022Z,0
2016-12-08T20:31:30.893Z,0
2016-12-08T20:34:02.753Z,0
2016-12-08T20:36:34.598Z,0
2016-12-08T20:39:06.457Z,0
2016-12-08T20:41:38.308Z,0
2016-12-08T20:44:10.149Z,0
2016-12-08T20:46:42.010Z,0
2016-12-08T20:49:13.850Z,0
2016-12-08T20:51:45.692Z,0
2016-12-08T20:54:17.549Z,0
2016-12-08T20:56:49.394Z,0
2016-12-08T20:59:21.250Z,0
2016-12-08T21:01:53.105Z,0
2016-12-08T21:04:24.947Z,0
2016-12-08T21:06:56.800Z,0
2016-12-08T21:09:28.637Z,0
2016-12-08T21:12:00.489Z,0
2016-12-08T21:14:32.348Z,0
2016-12-08T21:17:04.190Z,0
2016-12-08T21:19:36.034Z,0
2016-12-08T21:22:07.893Z,0
2016-12-08T21:24:39.735Z,0
2016-12-08T21:27:11.612Z,0
2016-12-08T21:29:43.462Z,0
2016-12-08T21:32:15.298Z,0
2016-12-08T21:34:47.157Z,0
2016-12-08T21:37:19.032Z,0
2016-12-08T21:39:50.899Z,0
2016-12-08T21:42:22.750Z,0
2016-12-08T21:44:54.587Z,0
2016-12-08T21:47:26.428Z,0
2016-12-08T21:49:58.316Z,0
2016-12-08T21:52:30.165Z,0
2016-12-08T21:55:02.021Z,0
2016-12-08T21:57:33.873Z,0
2016-12-08T22:00:05.715Z,0
2016-12-08T22:02:37.573Z,0
2016-12-08T22:05:09.749Z,0
2016-12-08T22:07:41.595Z,0
2016-12-08T22:10:13.451Z,0
2016-12-08T22:12:45.303Z,0
2016-12-08T22:15:17.142Z,0
2016-12-08T22:17:48.991Z,0
2016-12-08T22:20:20.825Z,0
2016-12-08T22:22:52.681Z,0
2016-12-08T22:25:24.540Z,0
2016-12-08T22:27:56.410Z,0
2016-12-08T22:30:28.238Z,0
2016-12-08T22:33:00.081Z,0
2016-12-08T22:35:31.952Z,0
2016-12-08T22:38:03.796Z,0
2016-12-08T22:40:35.644Z,0
2016-12-08T22:43:07.495Z,0
2016-12-08T22:45:39.330Z,0
2016-12-08T22:48:11.185Z,0
2016-12-08T22:50:43.031Z,0
2016-12-08T22:53:14.863Z,0
2016-12-08T22:55:46.726Z,0
2016-12-08T22:58:18.566Z,0
2016-12-08T23:00:50.418Z,0
2016-12-08T23:03:22.279Z,0
2016-12-08T23:05:54.111Z,0
2016-12-08T23:08:25.949Z,0
2016-12-08T23:10:57.801Z,0
2016-12-08T23:13:29.646Z,0
2016-12-08T23:16:01.491Z,0
2016-12-08T23:18:33.333Z,0
2016-12-08T23:21:05.179Z,0
2016-12-08T23:23:37.031Z,0
2016-12-08T23:26:08.883Z,0
2016-12-08T23:28:40.727Z,0
2016-12-08T23:31:12.588Z,0
2016-12-08T23:33:44.445Z,0
2016-12-08T23:36:16.283Z,0
2016-12-08T23:38:48.133Z,0
2016-12-08T23:41:19.970Z,0
2016-12-08T23:43:51.810Z,0
2016-12-08T23:46:23.664Z,0
2016-12-08T23:48:55.515Z,0
2016-12-08T23:51:27.356Z,0
2016-12-08T23:53:59.198Z,0
2016-12-08T23:56:31.063Z,0
2016-12-08T23:59:02.916Z,0
